createdAt,value
2022-10-10T00:00:56.601Z,5.00
2022-10-10T00:03:25.504Z,4.88
2022-10-10T00:05:52.956Z,4.47
2022-10-10T00:08:21.016Z,4.45
2022-10-10T00:10:48.657Z,5.30
2022-10-10T00:13:16.454Z,4.32
2022-10-10T00:15:48.719Z,4.65
2022-10-10T00:18:17.315Z,4.35
2022-10-10T00:20:44.966Z,4.40
2022-10-10T00:23:12.662Z,4.70
2022-10-10T00:25:40.745Z,5.53
2022-10-10T00:28:08.591Z,4.80
2022-10-10T00:30:36.444Z,4.43
2022-10-10T00:33:04.129Z,4.25
2022-10-10T00:35:31.777Z,4.55
2022-10-10T00:37:59.363Z,3.35
2022-10-10T00:40:27.314Z,5.18
2022-10-10T00:42:55.216Z,4.07
2022-10-10T00:45:23.097Z,3.10
2022-10-10T00:47:53.320Z,2.53
2022-10-10T00:50:22.792Z,2.80
2022-10-10T00:52:51.138Z,2.53
2022-10-10T00:55:19.303Z,2.15
2022-10-10T00:57:47.416Z,1.30
2022-10-10T01:00:15.110Z,1.75
2022-10-10T01:02:42.650Z,1.80
2022-10-10T01:05:10.244Z,1.38
2022-10-10T01:07:38.718Z,2.08
2022-10-10T01:10:12.163Z,1.48
2022-10-10T01:12:57.930Z,1.52
2022-10-10T01:15:37.367Z,0.98
2022-10-10T01:18:05.319Z,0.70
2022-10-10T01:20:44.985Z,1.05
2022-10-10T01:23:24.601Z,1.33
2022-10-10T01:26:10.313Z,1.00
2022-10-10T01:28:57.118Z,1.35
2022-10-10T01:31:27.191Z,1.85
2022-10-10T01:33:55.169Z,2.15
2022-10-10T01:36:44.521Z,1.40
2022-10-10T01:39:27.304Z,1.33
2022-10-10T01:42:21.518Z,1.42
2022-10-10T01:44:53.799Z,1.27
2022-10-10T01:47:22.483Z,1.08
2022-10-10T01:49:53.993Z,3.28
2022-10-10T01:52:59.246Z,2.13
2022-10-10T01:55:57.353Z,1.70
2022-10-10T01:58:34.714Z,1.85
2022-10-10T02:01:35.113Z,2.58
2022-10-10T02:04:11.766Z,1.48
2022-10-10T02:06:44.558Z,1.90
2022-10-10T02:09:17.795Z,2.70
2022-10-10T02:11:49.055Z,2.75
2022-10-10T02:14:24.083Z,2.78
2022-10-10T02:16:55.537Z,3.35
2022-10-10T02:19:23.973Z,5.40
2022-10-10T02:21:53.106Z,5.00
2022-10-10T02:24:22.933Z,3.20
2022-10-10T02:27:03.613Z,4.78
2022-10-10T02:29:35.617Z,4.82
2022-10-10T02:32:26.597Z,5.40
2022-10-10T02:34:57.737Z,6.07
2022-10-10T02:37:26.286Z,5.32
2022-10-10T02:39:58.546Z,4.18
2022-10-10T02:42:27.841Z,5.40
2022-10-10T02:44:56.856Z,7.03
2022-10-10T02:47:24.830Z,10.68
2022-10-10T02:49:52.303Z,7.13
2022-10-10T02:52:20.113Z,6.15
2022-10-10T02:54:48.001Z,9.25
2022-10-10T02:57:15.604Z,8.82
2022-10-10T02:59:43.701Z,7.80
2022-10-10T03:02:11.599Z,7.82
2022-10-10T03:04:39.270Z,9.30
2022-10-10T03:07:06.955Z,10.23
2022-10-10T03:09:35.064Z,6.43
2022-10-10T03:12:02.793Z,8.65
2022-10-10T03:14:30.391Z,9.65
2022-10-10T03:16:58.705Z,7.38
2022-10-10T03:21:53.752Z,11.40
2022-10-10T03:24:21.626Z,11.82
2022-10-10T03:26:49.252Z,13.40
2022-10-10T03:29:16.731Z,8.43
2022-10-10T03:31:44.319Z,5.80
2022-10-10T03:34:12.264Z,9.38
2022-10-10T03:36:40.238Z,8.32
2022-10-10T03:41:37.487Z,4.35
2022-10-10T03:44:04.897Z,4.55
2022-10-10T03:46:32.558Z,4.78
2022-10-10T03:49:00.439Z,3.08
2022-10-10T03:51:27.866Z,3.63
2022-10-10T03:53:55.385Z,3.03
2022-10-10T03:56:23.122Z,2.97
2022-10-10T03:58:50.697Z,3.75
2022-10-10T04:01:18.678Z,4.10
2022-10-10T04:03:51.268Z,3.03
2022-10-10T04:06:20.111Z,2.92
2022-10-10T04:11:15.505Z,2.33
2022-10-10T04:13:42.950Z,2.25
2022-10-10T04:16:10.480Z,2.78
2022-10-10T04:18:37.999Z,3.08
2022-10-10T04:21:06.394Z,3.13
2022-10-10T04:23:35.052Z,3.10
2022-10-10T04:26:02.541Z,2.67
2022-10-10T04:28:30.804Z,2.63
2022-10-10T04:33:25.779Z,3.28
2022-10-10T04:35:53.330Z,3.00
2022-10-10T04:38:22.729Z,2.03
2022-10-10T04:40:50.961Z,2.10
2022-10-10T04:43:19.289Z,2.22
2022-10-10T04:45:47.306Z,1.67
2022-10-10T04:48:15.097Z,1.70
2022-10-10T04:50:42.885Z,2.30
2022-10-10T04:53:11.617Z,2.13
2022-10-10T04:55:39.473Z,3.28
2022-10-10T04:58:07.399Z,3.00
2022-10-10T05:00:35.371Z,2.78
2022-10-10T05:03:03.153Z,3.05
2022-10-10T05:05:31.199Z,2.72
2022-10-10T05:07:58.741Z,3.47
2022-10-10T05:10:27.056Z,3.60
2022-10-10T05:12:54.734Z,2.70
2022-10-10T05:15:22.814Z,3.33
2022-10-10T05:17:50.432Z,2.80
2022-10-10T05:20:18.507Z,3.72
2022-10-10T05:22:46.174Z,3.25
2022-10-10T05:25:13.744Z,3.30
2022-10-10T05:27:41.553Z,3.13
2022-10-10T05:30:09.412Z,3.17
2022-10-10T05:32:37.286Z,3.28
2022-10-10T05:35:05.573Z,3.70
2022-10-10T05:37:33.455Z,3.58
2022-10-10T05:40:01.208Z,3.30
2022-10-10T05:42:28.805Z,3.50
2022-10-10T05:44:57.010Z,3.33
2022-10-10T05:47:27.971Z,4.18
2022-10-10T05:49:55.629Z,4.32
2022-10-10T05:52:23.587Z,3.70
2022-10-10T05:54:51.428Z,4.45
2022-10-10T05:57:18.947Z,4.85
2022-10-10T05:59:46.502Z,4.63
2022-10-10T06:02:14.704Z,3.63
2022-10-10T06:07:10.059Z,3.25
2022-10-10T06:09:37.563Z,3.33
2022-10-10T06:12:05.058Z,3.17
2022-10-10T06:14:32.760Z,3.10
2022-10-10T06:17:00.802Z,2.83
2022-10-10T06:19:28.262Z,4.28
2022-10-10T06:21:56.230Z,3.25
2022-10-10T06:24:23.919Z,2.92
2022-10-10T06:26:51.439Z,3.78
2022-10-10T06:29:19.329Z,3.97
2022-10-10T06:31:46.829Z,3.50
2022-10-10T06:34:14.745Z,3.33
2022-10-10T06:36:42.167Z,3.55
2022-10-10T06:39:09.720Z,2.83
2022-10-10T06:41:37.649Z,2.95
2022-10-10T06:44:11.341Z,3.20
2022-10-10T06:49:06.986Z,3.08
2022-10-10T06:54:01.985Z,3.00
2022-10-10T06:56:29.924Z,3.63
2022-10-10T06:58:57.752Z,3.95
2022-10-10T07:01:26.217Z,4.50
2022-10-10T07:03:54.163Z,2.50
2022-10-10T07:06:21.897Z,2.58
2022-10-10T07:08:49.503Z,2.95
2022-10-10T07:11:17.548Z,2.95
2022-10-10T07:16:12.477Z,4.18
2022-10-10T07:19:36.360Z,4.25
2022-10-10T07:22:04.181Z,3.17
2022-10-10T07:24:32.062Z,3.00
2022-10-10T07:27:06.276Z,2.65
2022-10-10T07:29:36.463Z,2.20
2022-10-10T07:32:04.048Z,2.28
2022-10-10T07:34:31.967Z,3.17
2022-10-10T07:36:59.425Z,2.72
2022-10-10T07:39:27.146Z,2.60
2022-10-10T07:41:55.110Z,3.95
2022-10-10T07:44:24.159Z,3.63
2022-10-10T07:46:52.354Z,5.25
2022-10-10T07:49:19.791Z,5.10
2022-10-10T07:51:47.408Z,4.07
2022-10-10T07:54:15.318Z,4.22
2022-10-10T07:56:42.788Z,3.05
2022-10-10T07:59:10.359Z,2.85
2022-10-10T08:01:38.125Z,3.55
2022-10-10T08:04:06.172Z,3.30
2022-10-10T08:06:34.040Z,2.85
2022-10-10T08:09:01.437Z,2.75
2022-10-10T08:11:29.059Z,2.30
2022-10-10T08:13:56.606Z,3.40
2022-10-10T08:16:24.767Z,1.60
2022-10-10T08:21:20.830Z,2.80
2022-10-10T08:23:48.402Z,2.28
2022-10-10T08:26:17.937Z,2.45
2022-10-10T08:28:46.039Z,3.10
2022-10-10T08:33:43.956Z,2.70
2022-10-10T08:36:22.962Z,3.67
2022-10-10T08:38:52.766Z,2.45
2022-10-10T08:41:42.934Z,3.17
2022-10-10T08:44:32.677Z,2.05
2022-10-10T08:47:14.672Z,2.72
2022-10-10T08:50:14.867Z,3.08
2022-10-10T08:53:20.450Z,4.43
2022-10-10T08:55:49.071Z,2.55
2022-10-10T08:58:24.305Z,1.63
2022-10-10T09:00:59.501Z,1.70
2022-10-10T09:03:27.733Z,2.78
2022-10-10T09:06:07.315Z,2.90
2022-10-10T09:08:42.693Z,1.60
2022-10-10T09:11:20.807Z,2.85
2022-10-10T09:14:00.680Z,2.88
2022-10-10T09:16:57.598Z,3.13
2022-10-10T09:19:26.134Z,1.88
2022-10-10T09:22:00.097Z,2.17
2022-10-10T09:24:47.738Z,2.22
2022-10-10T09:30:06.341Z,3.28
2022-10-10T09:32:44.818Z,3.53
2022-10-10T09:35:32.673Z,2.42
2022-10-10T09:38:24.785Z,2.45
2022-10-10T09:41:03.078Z,2.80
2022-10-10T09:43:33.999Z,3.65
2022-10-10T09:46:01.881Z,2.15
2022-10-10T09:48:33.288Z,3.53
2022-10-10T09:51:06.970Z,1.90
2022-10-10T09:53:35.120Z,1.92
2022-10-10T09:56:06.123Z,3.58
2022-10-10T09:58:41.492Z,2.30
2022-10-10T10:01:25.294Z,2.75
2022-10-10T10:04:27.740Z,2.75
2022-10-10T10:07:18.442Z,2.33
2022-10-10T10:09:59.360Z,3.25
2022-10-10T10:12:38.246Z,3.05
2022-10-10T10:15:17.046Z,1.73
2022-10-10T10:17:45.227Z,2.72
2022-10-10T10:20:32.816Z,2.55
2022-10-10T10:23:01.061Z,2.08
2022-10-10T10:25:35.252Z,2.25
2022-10-10T10:28:12.076Z,1.75
2022-10-10T10:30:41.361Z,1.90
2022-10-10T10:33:46.546Z,2.72
2022-10-10T10:36:23.060Z,2.17
2022-10-10T10:39:00.319Z,2.65
2022-10-10T10:41:43.135Z,2.15
2022-10-10T10:44:13.704Z,3.17
2022-10-10T10:46:51.766Z,2.85
2022-10-10T10:49:34.005Z,1.35
2022-10-10T10:52:17.016Z,2.53
2022-10-10T10:55:10.947Z,2.75
2022-10-10T10:58:16.373Z,2.92
2022-10-10T11:01:23.689Z,2.17
2022-10-10T11:05:20.449Z,2.50
2022-10-10T11:07:17.127Z,2.75
2022-10-10T11:09:50.499Z,1.60
2022-10-10T11:12:31.583Z,2.95
2022-10-10T11:15:12.614Z,1.77
2022-10-10T11:17:45.479Z,1.77
2022-10-10T11:20:31.821Z,2.90
2022-10-10T11:23:09.078Z,1.70
2022-10-10T11:25:44.386Z,2.22
2022-10-10T11:28:37.487Z,1.73
2022-10-10T11:31:23.284Z,1.80
2022-10-10T11:34:03.799Z,3.97
2022-10-10T11:36:36.362Z,1.73
2022-10-10T11:39:33.478Z,1.50
2022-10-10T11:42:11.670Z,1.65
2022-10-10T11:44:59.914Z,3.10
2022-10-10T11:47:39.839Z,2.25
2022-10-10T11:50:24.122Z,3.47
2022-10-10T11:53:08.033Z,1.50
2022-10-10T11:55:47.801Z,2.33
2022-10-10T11:58:25.830Z,1.33
2022-10-10T12:00:58.187Z,1.92
2022-10-10T12:03:26.926Z,1.77
2022-10-10T12:06:24.827Z,1.95
2022-10-10T12:09:20.819Z,2.85
2022-10-10T12:12:06.985Z,2.38
2022-10-10T12:14:39.835Z,2.03
2022-10-10T12:17:20.848Z,1.75
2022-10-10T12:19:50.806Z,1.83
2022-10-10T12:22:29.954Z,1.33
2022-10-10T12:25:25.241Z,2.13
2022-10-10T12:28:30.476Z,2.25
2022-10-10T12:30:58.940Z,2.17
2022-10-10T12:33:26.728Z,1.80
2022-10-10T12:35:55.135Z,2.40
2022-10-10T12:38:29.016Z,2.22
2022-10-10T12:41:14.120Z,2.28
2022-10-10T12:44:19.490Z,2.28
2022-10-10T12:46:49.991Z,2.25
2022-10-10T12:49:24.802Z,2.33
2022-10-10T12:52:12.043Z,1.80
2022-10-10T12:54:44.007Z,1.85
2022-10-10T12:57:34.409Z,2.00
2022-10-10T13:00:22.726Z,2.67
2022-10-10T13:02:54.998Z,1.75
2022-10-10T13:05:36.101Z,2.13
2022-10-10T13:08:07.953Z,2.40
2022-10-10T13:10:35.532Z,2.05
2022-10-10T13:13:21.537Z,2.10
2022-10-10T13:15:57.044Z,2.45
2022-10-10T13:18:38.218Z,2.35
2022-10-10T13:21:13.378Z,2.30
2022-10-10T13:23:44.535Z,2.05
2022-10-10T13:26:23.534Z,2.05
2022-10-10T13:31:20.092Z,2.13
2022-10-10T13:33:47.875Z,2.63
2022-10-10T13:36:21.442Z,2.05
2022-10-10T13:38:50.127Z,2.97
2022-10-10T13:41:19.383Z,2.28
2022-10-10T13:43:47.157Z,2.63
2022-10-10T13:46:30.830Z,1.30
2022-10-10T13:48:59.813Z,2.85
2022-10-10T13:51:47.292Z,2.30
2022-10-10T13:54:43.450Z,2.03
2022-10-10T13:57:24.292Z,2.15
2022-10-10T14:00:07.746Z,2.08
2022-10-10T14:02:37.538Z,2.03
2022-10-10T14:05:14.382Z,1.90
2022-10-10T14:07:52.266Z,2.00
2022-10-10T14:10:29.527Z,2.72
2022-10-10T14:12:59.794Z,3.50
2022-10-10T14:15:37.385Z,1.98
2022-10-10T14:18:25.883Z,2.75
2022-10-10T14:20:53.945Z,2.28
2022-10-10T14:25:50.331Z,3.30
2022-10-10T14:28:27.167Z,2.45
2022-10-10T14:30:55.129Z,2.78
2022-10-10T14:35:52.434Z,2.72
2022-10-10T14:38:20.654Z,2.33
2022-10-10T14:40:50.130Z,2.33
2022-10-10T14:43:20.527Z,1.80
2022-10-10T14:45:50.575Z,2.05
2022-10-10T14:48:18.448Z,2.75
2022-10-10T14:50:48.018Z,2.10
2022-10-10T14:53:16.102Z,2.47
2022-10-10T14:55:44.207Z,2.80
2022-10-10T14:58:20.977Z,2.35
2022-10-10T15:00:50.887Z,2.08
2022-10-10T15:03:18.759Z,2.65
2022-10-10T15:05:48.607Z,2.45
2022-10-10T15:08:18.579Z,2.25
2022-10-10T15:10:46.914Z,2.80
2022-10-10T15:13:16.341Z,2.97
2022-10-10T15:15:44.069Z,2.30
2022-10-10T15:18:32.042Z,2.33
2022-10-10T15:20:59.631Z,3.20
2022-10-10T15:23:27.750Z,2.47
2022-10-10T15:25:59.542Z,1.73
2022-10-10T15:28:27.104Z,3.20
2022-10-10T15:30:54.783Z,1.73
2022-10-10T15:33:22.402Z,2.20
2022-10-10T15:36:08.940Z,1.88
2022-10-10T15:38:37.495Z,2.38
2022-10-10T15:41:09.266Z,2.97
2022-10-10T15:43:54.422Z,2.42
2022-10-10T15:46:27.300Z,2.65
2022-10-10T15:48:59.856Z,3.33
2022-10-10T15:51:28.342Z,2.38
2022-10-10T15:53:57.655Z,1.45
2022-10-10T15:56:26.148Z,2.28
2022-10-10T15:58:58.381Z,1.60
2022-10-10T16:01:26.985Z,2.03
2022-10-10T16:03:54.888Z,3.03
2022-10-10T16:06:25.309Z,2.55
2022-10-10T16:09:10.023Z,2.20
2022-10-10T16:11:38.011Z,2.97
2022-10-10T16:14:05.808Z,2.65
2022-10-10T16:16:33.955Z,1.92
2022-10-10T16:19:01.879Z,2.58
2022-10-10T16:21:33.657Z,1.63
2022-10-10T16:24:01.771Z,1.17
2022-10-10T16:29:01.869Z,2.05
2022-10-10T16:31:30.299Z,1.60
2022-10-10T16:33:59.440Z,2.45
2022-10-10T16:36:31.028Z,2.58
2022-10-10T16:38:59.401Z,1.70
2022-10-10T16:41:47.047Z,1.83
2022-10-10T16:44:15.968Z,2.35
2022-10-10T16:46:43.795Z,1.95
2022-10-10T16:49:13.077Z,1.88
2022-10-10T16:51:40.680Z,2.15
2022-10-10T16:54:08.826Z,2.67
2022-10-10T16:59:04.809Z,2.40
2022-10-10T17:01:32.603Z,3.03
2022-10-10T17:06:35.007Z,2.58
2022-10-10T17:09:05.959Z,1.60
2022-10-10T17:11:35.473Z,2.17
2022-10-10T17:14:03.740Z,2.50
2022-10-10T17:17:06.923Z,2.25
2022-10-10T17:21:46.825Z,2.20
2022-10-10T17:24:14.893Z,2.42
2022-10-10T17:26:42.618Z,2.03
2022-10-10T17:29:10.430Z,2.90
2022-10-10T17:31:38.238Z,1.83
2022-10-10T17:34:07.303Z,2.30
2022-10-10T17:36:34.729Z,3.25
2022-10-10T17:39:02.637Z,3.08
2022-10-10T17:41:32.627Z,3.15
2022-10-10T17:44:00.904Z,2.75
2022-10-10T17:49:09.625Z,3.40
2022-10-10T17:51:38.976Z,2.17
2022-10-10T17:54:07.448Z,2.47
2022-10-10T17:56:35.813Z,2.35
2022-10-10T17:59:06.473Z,2.17
2022-10-10T18:01:35.575Z,2.55
2022-10-10T18:04:03.309Z,2.13
2022-10-10T18:06:31.678Z,2.00
2022-10-10T18:09:00.110Z,2.00
2022-10-10T18:11:30.786Z,2.67
2022-10-10T18:14:01.769Z,2.10
2022-10-10T18:16:34.610Z,2.20
2022-10-10T18:19:04.479Z,2.60
2022-10-10T18:21:32.322Z,2.83
2022-10-10T18:24:01.075Z,3.55
2022-10-10T18:26:30.004Z,3.05
2022-10-10T18:28:58.346Z,2.40
2022-10-10T18:31:33.301Z,3.28
2022-10-10T18:34:02.757Z,3.60
2022-10-10T18:36:33.737Z,3.28
2022-10-10T18:39:04.569Z,3.50
2022-10-10T18:41:35.237Z,2.75
2022-10-10T18:44:08.831Z,2.85
2022-10-10T18:46:37.228Z,2.90
2022-10-10T18:49:06.754Z,3.60
2022-10-10T18:51:34.745Z,2.97
2022-10-10T18:54:04.670Z,2.35
2022-10-10T18:56:33.439Z,2.50
2022-10-10T18:59:03.776Z,3.17
2022-10-10T19:01:36.507Z,2.67
2022-10-10T19:04:05.831Z,2.33
2022-10-10T19:06:33.874Z,3.10
2022-10-10T19:11:35.412Z,2.97
2022-10-10T19:14:04.839Z,3.10
2022-10-10T19:16:33.576Z,2.65
2022-10-10T19:19:02.255Z,3.17
2022-10-10T19:21:33.307Z,3.60
2022-10-10T19:24:03.333Z,3.15
2022-10-10T19:26:34.178Z,3.20
2022-10-10T19:29:07.526Z,3.10
2022-10-10T19:31:36.675Z,3.08
2022-10-10T19:34:04.390Z,3.65
2022-10-10T19:36:32.118Z,3.17
2022-10-10T19:39:00.481Z,2.80
2022-10-10T19:41:29.592Z,3.47
2022-10-10T19:43:58.736Z,3.30
2022-10-10T19:46:27.841Z,3.65
2022-10-10T19:48:58.066Z,4.10
2022-10-10T19:51:27.599Z,3.53
2022-10-10T19:53:55.710Z,3.70
2022-10-10T19:56:24.989Z,2.67
2022-10-10T19:58:57.836Z,3.30
2022-10-10T20:01:29.698Z,4.78
2022-10-10T20:03:58.343Z,3.60
2022-10-10T20:06:27.223Z,2.75
2022-10-10T20:08:55.481Z,3.40
2022-10-10T20:13:55.768Z,2.97
2022-10-10T20:16:25.192Z,2.67
2022-10-10T20:18:53.683Z,2.40
2022-10-10T20:21:31.504Z,3.55
2022-10-10T20:26:28.411Z,4.00
2022-10-10T20:28:57.703Z,4.03
2022-10-10T20:31:31.661Z,3.60
2022-10-10T20:34:03.586Z,3.20
2022-10-10T20:36:32.850Z,3.35
2022-10-10T20:39:02.997Z,3.42
2022-10-10T20:41:32.412Z,3.80
2022-10-10T20:44:03.423Z,3.17
2022-10-10T20:46:34.929Z,3.13
2022-10-10T20:49:05.420Z,4.38
2022-10-10T20:51:33.474Z,3.05
2022-10-10T20:54:03.795Z,3.00
2022-10-10T20:56:33.083Z,3.08
2022-10-10T20:59:01.386Z,3.25
2022-10-10T21:01:31.605Z,2.97
2022-10-10T21:03:59.760Z,2.80
2022-10-10T21:06:30.444Z,2.65
2022-10-10T21:09:01.391Z,3.42
2022-10-10T21:11:29.303Z,3.13
2022-10-10T21:13:58.503Z,3.00
2022-10-10T21:16:32.296Z,3.38
2022-10-10T21:19:00.907Z,3.10
2022-10-10T21:21:30.983Z,3.13
2022-10-10T21:23:59.379Z,3.58
2022-10-10T21:26:29.259Z,3.33
2022-10-10T21:28:58.314Z,2.85
2022-10-10T21:31:32.307Z,3.53
2022-10-10T21:34:02.533Z,2.80
2022-10-10T21:36:31.027Z,3.20
2022-10-10T21:38:59.550Z,1.83
2022-10-10T21:41:27.775Z,3.45
2022-10-10T21:46:34.685Z,3.17
2022-10-10T21:49:07.938Z,2.85
2022-10-10T21:51:38.000Z,2.75
2022-10-10T21:54:06.462Z,2.63
2022-10-10T21:56:34.504Z,3.38
2022-10-10T21:59:02.826Z,2.38
2022-10-10T22:01:33.189Z,3.30
2022-10-10T22:04:01.431Z,2.58
2022-10-10T22:06:29.533Z,4.18
2022-10-10T22:08:58.932Z,2.47
2022-10-10T22:11:28.860Z,3.00
2022-10-10T22:13:56.492Z,2.50
2022-10-10T22:16:24.700Z,2.55
2022-10-10T22:18:57.320Z,2.63
2022-10-10T22:21:30.319Z,2.50
2022-10-10T22:24:01.539Z,2.60
2022-10-10T22:26:29.728Z,2.67
2022-10-10T22:28:57.822Z,3.15
2022-10-10T22:31:25.896Z,2.53
2022-10-10T22:33:53.804Z,3.63
2022-10-10T22:36:21.459Z,3.00
2022-10-10T22:38:48.987Z,2.38
2022-10-10T22:41:16.619Z,2.88
2022-10-10T22:43:44.194Z,2.63
2022-10-10T22:46:11.796Z,3.38
2022-10-10T22:48:39.614Z,3.28
2022-10-10T22:51:15.441Z,2.88
2022-10-10T22:53:45.038Z,2.90
2022-10-10T22:56:17.233Z,2.63
2022-10-10T22:58:45.907Z,2.85
2022-10-10T23:01:20.945Z,2.55
2022-10-10T23:03:48.952Z,2.50
2022-10-10T23:06:16.946Z,2.45
2022-10-10T23:08:44.800Z,2.95
2022-10-10T23:11:12.354Z,2.92
2022-10-10T23:13:40.306Z,2.78
2022-10-10T23:16:08.884Z,3.25
2022-10-10T23:18:36.962Z,2.38
2022-10-10T23:21:04.601Z,2.60
2022-10-10T23:23:32.189Z,2.45
2022-10-10T23:25:59.947Z,2.75
2022-10-10T23:28:27.568Z,2.10
2022-10-10T23:31:00.865Z,3.25
2022-10-10T23:33:31.204Z,3.38
2022-10-10T23:36:06.262Z,2.83
2022-10-10T23:38:48.121Z,2.53
2022-10-10T23:41:28.047Z,2.38
2022-10-10T23:44:08.342Z,2.92
2022-10-10T23:46:49.570Z,2.55
2022-10-10T23:49:30.559Z,3.42
2022-10-10T23:52:10.249Z,2.78
2022-10-10T23:54:52.315Z,2.67
2022-10-10T23:57:33.251Z,3.08
